createdAt,value
2022-11-24T00:02:51.989Z,18.33
2022-11-24T00:07:56.688Z,12.68
2022-11-24T00:13:02.434Z,19.77
2022-11-24T00:18:06.145Z,19.83
2022-11-24T00:23:11.211Z,29.10
2022-11-24T00:28:14.916Z,17.02
2022-11-24T00:33:18.240Z,19.45
2022-11-24T00:38:21.538Z,20.67
2022-11-24T00:43:25.042Z,20.55
2022-11-24T00:48:28.697Z,17.38
2022-11-24T00:53:32.427Z,21.50
2022-11-24T00:58:39.391Z,17.92
2022-11-24T01:03:43.235Z,18.95
2022-11-24T01:08:47.364Z,13.30
2022-11-24T01:13:56.887Z,18.52
2022-11-24T01:19:01.467Z,15.85
2022-11-24T01:24:05.570Z,16.63
2022-11-24T01:29:11.586Z,31.25
2022-11-24T01:34:14.985Z,19.55
2022-11-24T01:39:18.437Z,17.05
2022-11-24T01:44:28.820Z,15.55
2022-11-24T01:49:41.408Z,19.00
2022-11-24T01:54:50.494Z,23.17
2022-11-24T02:00:02.767Z,12.65
2022-11-24T02:05:28.593Z,17.13
2022-11-24T02:10:32.067Z,19.30
2022-11-24T02:15:36.039Z,15.20
2022-11-24T02:20:39.555Z,21.05
2022-11-24T02:25:58.381Z,30.35
2022-11-24T02:31:02.687Z,22.15
2022-11-24T02:36:06.462Z,22.45
2022-11-24T02:41:14.386Z,20.08
2022-11-24T02:46:17.932Z,20.63
2022-11-24T02:51:21.357Z,28.83
2022-11-24T02:56:28.494Z,30.52
2022-11-24T03:01:32.071Z,19.00
2022-11-24T03:06:36.475Z,26.90
2022-11-24T03:11:39.859Z,32.55
2022-11-24T03:16:43.604Z,20.48
2022-11-24T03:21:46.970Z,17.27
2022-11-24T03:26:50.685Z,18.05
2022-11-24T03:31:54.520Z,40.22
2022-11-24T03:37:04.350Z,31.80
2022-11-24T03:42:07.622Z,18.70
2022-11-24T03:47:12.198Z,31.63
2022-11-24T03:52:15.508Z,17.42
2022-11-24T03:57:18.905Z,25.00
2022-11-24T04:02:22.474Z,21.33
2022-11-24T04:07:25.833Z,15.93
2022-11-24T04:12:29.242Z,20.23
2022-11-24T04:17:32.534Z,24.15
2022-11-24T04:22:35.936Z,30.75
2022-11-24T04:27:40.537Z,25.30
2022-11-24T04:32:44.236Z,17.88
2022-11-24T04:37:50.227Z,17.88
2022-11-24T04:42:54.988Z,33.88
2022-11-24T04:47:58.652Z,29.67
2022-11-24T04:53:03.610Z,35.20
2022-11-24T04:58:13.590Z,25.90
2022-11-24T05:03:18.245Z,29.55
2022-11-24T05:08:21.673Z,29.70
2022-11-24T05:13:24.980Z,26.38
2022-11-24T05:18:28.423Z,30.23
2022-11-24T05:23:31.867Z,27.13
2022-11-24T05:28:35.259Z,32.67
2022-11-24T05:33:39.959Z,31.15
2022-11-24T05:38:43.198Z,30.27
2022-11-24T05:43:46.765Z,40.60
2022-11-24T05:48:51.464Z,30.27
2022-11-24T05:53:55.698Z,41.40
2022-11-24T05:58:59.251Z,40.80
2022-11-24T06:04:02.808Z,47.63
2022-11-24T06:09:06.216Z,34.95
2022-11-24T06:14:11.472Z,31.98
2022-11-24T06:19:15.154Z,27.08
2022-11-24T06:24:18.662Z,34.15
2022-11-24T06:29:21.919Z,39.30
2022-11-24T06:34:25.297Z,26.65
2022-11-24T06:39:29.155Z,34.35
2022-11-24T06:44:37.122Z,26.95
2022-11-24T06:49:41.114Z,26.90
2022-11-24T06:54:44.498Z,43.15
2022-11-24T06:59:47.844Z,36.38
2022-11-24T07:04:54.956Z,46.65
2022-11-24T07:09:58.617Z,37.28
2022-11-24T07:15:02.445Z,31.77
2022-11-24T07:20:08.361Z,39.92
2022-11-24T07:25:11.681Z,29.75
2022-11-24T07:30:15.778Z,36.75
2022-11-24T07:35:19.214Z,30.73
2022-11-24T07:40:23.269Z,36.75
2022-11-24T07:45:26.775Z,46.35
2022-11-24T07:50:30.421Z,42.40
2022-11-24T07:55:33.752Z,37.45
2022-11-24T08:00:37.139Z,47.33
2022-11-24T08:06:00.710Z,40.58
2022-11-24T08:11:08.918Z,42.92
2022-11-24T08:16:18.233Z,44.25
2022-11-24T08:21:23.459Z,35.28
2022-11-24T08:26:31.152Z,42.80
2022-11-24T08:31:35.945Z,34.53
2022-11-24T08:36:39.398Z,26.83
2022-11-24T08:41:43.465Z,30.25
2022-11-24T08:46:46.867Z,30.70
2022-11-24T08:51:50.270Z,16.75
2022-11-24T08:56:53.661Z,18.35
2022-11-24T09:01:57.313Z,15.75
2022-11-24T09:07:01.110Z,16.98
2022-11-24T09:12:05.826Z,14.13
2022-11-24T09:17:12.397Z,15.45
2022-11-24T09:22:17.272Z,16.33
2022-11-24T09:27:20.613Z,15.25
2022-11-24T09:32:24.056Z,8.65
2022-11-24T09:37:32.435Z,11.63
2022-11-24T09:42:58.383Z,14.68
2022-11-24T09:48:21.790Z,6.82
2022-11-24T09:53:37.143Z,8.23
2022-11-24T09:59:07.494Z,9.20
2022-11-24T10:04:24.047Z,16.02
2022-11-24T10:09:44.768Z,11.48
2022-11-24T10:15:20.087Z,11.13
2022-11-24T10:20:41.800Z,10.75
2022-11-24T10:26:29.523Z,21.67
2022-11-24T10:31:39.680Z,16.50
2022-11-24T10:37:01.803Z,9.05
2022-11-24T10:42:33.956Z,11.68
2022-11-24T10:47:39.026Z,10.13
2022-11-24T10:52:47.554Z,21.35
2022-11-24T10:57:51.880Z,12.85
2022-11-24T11:03:21.360Z,15.45
2022-11-24T11:08:27.958Z,9.82
2022-11-24T11:13:31.855Z,7.78
2022-11-24T11:18:36.698Z,15.65
2022-11-24T11:23:41.044Z,6.68
2022-11-24T11:31:15.228Z,5.25
2022-11-24T11:34:29.856Z,12.43
2022-11-24T11:39:38.010Z,11.77
2022-11-24T11:44:53.128Z,6.57
2022-11-24T11:49:58.041Z,8.48
2022-11-24T11:55:46.548Z,8.93
2022-11-24T12:01:16.246Z,9.30
2022-11-24T12:06:48.521Z,8.63
2022-11-24T12:12:10.355Z,10.55
2022-11-24T12:17:31.875Z,8.77
2022-11-24T12:22:55.615Z,6.70
2022-11-24T12:28:30.714Z,5.47
2022-11-24T12:34:00.968Z,8.75
2022-11-24T12:39:34.472Z,6.70
2022-11-24T12:44:47.399Z,14.05
2022-11-24T12:50:12.360Z,6.85
2022-11-24T12:55:22.328Z,16.08
2022-11-24T13:00:28.809Z,19.45
2022-11-24T13:05:44.327Z,17.88
2022-11-24T13:10:55.886Z,9.02
2022-11-24T13:21:41.670Z,18.40
2022-11-24T13:26:54.357Z,18.63
2022-11-24T13:32:09.993Z,9.20
2022-11-24T13:37:28.899Z,8.52
2022-11-24T13:42:57.067Z,11.88
2022-11-24T13:48:02.003Z,8.85
2022-11-24T13:53:18.747Z,7.72
2022-11-24T13:58:29.255Z,9.43
2022-11-24T14:04:28.160Z,7.93
2022-11-24T14:09:35.683Z,7.97
2022-11-24T14:14:39.633Z,12.20
2022-11-24T14:19:45.644Z,9.10
2022-11-24T14:24:54.722Z,11.57
2022-11-24T14:30:10.362Z,4.50
2022-11-24T14:35:29.040Z,17.08
2022-11-24T14:40:41.628Z,5.20
2022-11-24T14:45:54.263Z,4.72
2022-11-24T14:51:20.159Z,3.83
2022-11-24T14:56:33.286Z,12.80
2022-11-24T15:01:36.942Z,9.48
2022-11-24T15:06:42.476Z,7.50
2022-11-24T15:11:46.269Z,8.93
2022-11-24T15:16:49.755Z,8.57
2022-11-24T15:21:53.181Z,8.40
2022-11-24T15:27:00.957Z,10.40
2022-11-24T15:32:14.396Z,7.72
2022-11-24T15:37:17.931Z,10.52
2022-11-24T15:42:21.896Z,8.57
2022-11-24T15:47:26.586Z,9.70
2022-11-24T15:52:30.900Z,7.65
2022-11-24T15:57:35.273Z,5.53
2022-11-24T16:02:38.676Z,9.45
2022-11-24T16:07:42.292Z,14.07
2022-11-24T16:12:45.674Z,5.82
2022-11-24T16:17:49.106Z,9.68
2022-11-24T16:22:52.417Z,9.23
2022-11-24T16:27:55.861Z,10.93
2022-11-24T16:33:05.560Z,6.05
2022-11-24T16:38:16.685Z,9.68
2022-11-24T16:43:20.402Z,15.13
2022-11-24T16:48:24.490Z,7.85
2022-11-24T16:53:27.974Z,13.73
2022-11-24T16:58:31.527Z,11.43
2022-11-24T17:03:35.658Z,11.52
2022-11-24T17:08:41.158Z,10.80
2022-11-24T17:13:46.801Z,6.55
2022-11-24T17:18:52.119Z,17.45
2022-11-24T17:23:59.488Z,11.93
2022-11-24T17:29:03.830Z,15.77
2022-11-24T17:34:12.233Z,15.07
2022-11-24T17:39:19.125Z,9.30
2022-11-24T17:44:30.609Z,21.70
2022-11-24T17:49:34.021Z,14.52
2022-11-24T17:54:46.239Z,11.75
2022-11-24T17:59:50.625Z,13.52
2022-11-24T18:04:55.292Z,10.25
2022-11-24T18:09:58.697Z,12.52
2022-11-24T18:15:04.836Z,12.73
2022-11-24T18:20:09.865Z,12.63
2022-11-24T18:25:13.429Z,10.30
2022-11-24T18:30:18.370Z,11.18
2022-11-24T18:35:25.247Z,14.18
2022-11-24T18:40:28.627Z,14.52
2022-11-24T18:45:32.446Z,26.02
2022-11-24T18:50:36.023Z,15.55
2022-11-24T18:55:39.448Z,11.10
2022-11-24T19:00:43.002Z,23.52
2022-11-24T19:05:46.778Z,30.98
2022-11-24T19:10:50.241Z,20.25
2022-11-24T19:15:53.547Z,15.60
2022-11-24T19:20:57.232Z,17.85
2022-11-24T19:26:04.925Z,17.45
2022-11-24T19:31:11.401Z,11.05
2022-11-24T19:36:20.881Z,15.55
2022-11-24T19:41:27.335Z,15.93
2022-11-24T19:46:31.163Z,18.00
2022-11-24T19:51:37.440Z,17.17
2022-11-24T19:56:41.425Z,23.20
2022-11-24T20:01:46.395Z,16.30
2022-11-24T20:06:49.935Z,9.93
2022-11-24T20:11:53.145Z,14.32
2022-11-24T20:16:57.204Z,27.70
2022-11-24T20:22:00.957Z,26.48
2022-11-24T20:27:04.554Z,18.92
2022-11-24T20:32:08.144Z,16.45
2022-11-24T20:37:11.616Z,27.65
2022-11-24T20:42:16.198Z,16.70
2022-11-24T20:47:19.713Z,20.52
2022-11-24T20:52:23.648Z,15.75
2022-11-24T20:57:27.034Z,21.02
2022-11-24T21:02:31.876Z,17.52
2022-11-24T21:07:38.746Z,14.40
2022-11-24T21:12:42.070Z,14.18
2022-11-24T21:17:45.392Z,16.92
2022-11-24T21:27:52.792Z,25.10
2022-11-24T21:33:00.119Z,25.55
2022-11-24T21:38:04.114Z,20.33
2022-11-24T21:43:08.383Z,27.98
2022-11-24T21:48:11.727Z,26.00
2022-11-24T22:03:23.692Z,16.83
2022-11-24T22:13:31.252Z,20.35
2022-11-24T22:18:36.684Z,24.40
2022-11-24T22:23:40.799Z,20.23
2022-11-24T22:28:45.366Z,24.80
2022-11-24T22:33:49.936Z,30.05
2022-11-24T22:39:01.187Z,18.48
2022-11-24T22:44:05.597Z,22.92
2022-11-24T22:49:10.331Z,28.13
2022-11-24T22:54:13.829Z,24.55
2022-11-24T22:59:17.222Z,35.25
2022-11-24T23:04:20.629Z,40.97
2022-11-24T23:09:25.412Z,27.65
2022-11-24T23:14:33.443Z,33.33
2022-11-24T23:19:37.149Z,26.73
2022-11-24T23:24:40.626Z,31.52
2022-11-24T23:29:43.939Z,27.15
2022-11-24T23:34:47.729Z,26.27
2022-11-24T23:39:51.036Z,31.30
2022-11-24T23:55:03.378Z,25.58
